Time;durP1;ratioP1;P1;durP2;ratioP2;P2;SDS_P1;SDS_P2;PMS_P1;PMS_P2;Temp;Humidity;BMP_temperature;BMP_pressure;BME280_temperature;BME280_humidity;BME280_pressure;Samples;Min_cycle;Max_cycle;Signal;HPM_P1;HPM_P2
2023/11/03 00:00:02;;;;;;;0.28;0.28;;;11.00;82.60;;;;;;5011432;28;20087;-65
2023/11/03 00:02:30;;;;;;;1.00;0.50;;;11.00;82.40;;;;;;5021837;28;20050;-68
2023/11/03 00:05:00;;;;;;;0.50;0.50;;;11.00;81.70;;;;;;5028823;28;20540;-68
2023/11/03 00:07:26;;;;;;;3.45;0.50;;;11.00;82.00;;;;;;5030317;28;20091;-68
2023/11/03 00:09:52;;;;;;;2.28;0.45;;;11.00;82.10;;;;;;5026672;28;20359;-67
2023/11/03 00:12:18;;;;;;;0.57;0.40;;;11.00;82.20;;;;;;5010981;28;20025;-68
2023/11/03 00:14:44;;;;;;;1.85;0.63;;;11.00;82.20;;;;;;5030907;28;20026;-67
2023/11/03 00:17:10;;;;;;;0.75;0.50;;;11.00;82.00;;;;;;5030882;28;20561;-67
2023/11/03 00:19:36;;;;;;;1.10;0.68;;;11.00;81.80;;;;;;5025525;28;20456;-64
2023/11/03 00:22:05;;;;;;;0.32;0.30;;;11.00;82.00;;;;;;5031324;28;20056;-65
2023/11/03 00:24:30;;;;;;;0.13;0.13;;;11.00;81.80;;;;;;5030387;28;20084;-67
2023/11/03 00:26:56;;;;;;;0.68;0.52;;;11.00;81.60;;;;;;5006298;28;20030;-68
2023/11/03 00:29:22;;;;;;;0.40;0.40;;;11.00;81.50;;;;;;5027205;28;20481;-67
2023/11/03 00:31:49;;;;;;;0.50;0.50;;;11.00;81.50;;;;;;5029812;28;20029;-65
2023/11/03 00:34:15;;;;;;;1.75;0.30;;;11.00;81.70;;;;;;5032590;28;20021;-64
2023/11/03 00:36:47;;;;;;;0.50;0.30;;;10.90;81.60;;;;;;5030311;28;20034;-64
2023/11/03 00:39:14;;;;;;;0.43;0.28;;;10.90;81.70;;;;;;5030132;28;20112;-64
2023/11/03 00:41:43;;;;;;;1.08;0.52;;;10.90;81.80;;;;;;5030223;28;20061;-64
2023/11/03 00:44:09;;;;;;;0.30;0.30;;;10.90;81.80;;;;;;5023705;28;20021;-67
2023/11/03 00:46:35;;;;;;;0.63;0.35;;;11.00;81.60;;;;;;5030045;28;20083;-67
2023/11/03 00:49:08;;;;;;;0.50;0.50;;;11.00;81.30;;;;;;5029325;28;20209;-65
2023/11/03 00:51:34;;;;;;;0.43;0.40;;;11.00;81.30;;;;;;5025364;28;20037;-64
2023/11/03 00:54:03;;;;;;;0.93;0.43;;;11.00;81.20;;;;;;5019243;28;20034;-64
2023/11/03 00:56:29;;;;;;;1.02;0.50;;;11.00;81.20;;;;;;5012213;28;20398;-65
2023/11/03 00:58:55;;;;;;;3.60;0.60;;;11.00;81.50;;;;;;5012376;28;20038;-64
2023/11/03 01:01:21;;;;;;;0.30;0.30;;;11.00;81.60;;;;;;5030634;28;20367;-67
2023/11/03 01:03:48;;;;;;;2.55;0.93;;;11.00;81.70;;;;;;5028658;28;20508;-67
2023/11/03 01:06:13;;;;;;;1.17;0.75;;;11.00;81.80;;;;;;5031019;28;20033;-67
2023/11/03 01:08:39;;;;;;;0.38;0.38;;;11.00;81.80;;;;;;5029159;28;20445;-67
2023/11/03 01:11:09;;;;;;;0.30;0.30;;;11.00;81.70;;;;;;5022011;28;20393;-67
2023/11/03 01:13:39;;;;;;;0.40;0.40;;;11.00;81.90;;;;;;5010651;28;20037;-67
2023/11/03 01:16:09;;;;;;;5.70;0.70;;;11.00;81.90;;;;;;5028820;28;20025;-67
2023/11/03 01:18:35;;;;;;;0.32;0.25;;;11.00;81.80;;;;;;5025499;28;20492;-67
2023/11/03 01:21:09;;;;;;;0.85;0.45;;;11.00;81.50;;;;;;5027603;28;20036;-67
2023/11/03 01:23:35;;;;;;;0.30;0.30;;;11.00;81.70;;;;;;5009591;28;20555;-67
2023/11/03 01:26:03;;;;;;;0.75;0.50;;;11.00;81.70;;;;;;5029772;28;20083;-65
2023/11/03 01:28:30;;;;;;;0.40;0.40;;;10.90;81.70;;;;;;5028817;28;20045;-65
2023/11/03 01:30:57;;;;;;;0.85;0.40;;;11.00;81.60;;;;;;5028688;28;20090;-64
2023/11/03 01:33:22;;;;;;;0.28;0.28;;;11.00;81.50;;;;;;5028157;28;20029;-65
2023/11/03 01:35:48;;;;;;;0.80;0.43;;;11.00;81.40;;;;;;5029873;28;20476;-64
2023/11/03 01:38:14;;;;;;;1.00;0.65;;;11.00;81.40;;;;;;5028868;28;20386;-65
2023/11/03 01:40:40;;;;;;;0.40;0.40;;;11.00;81.50;;;;;;5028072;28;20029;-64
2023/11/03 01:43:05;;;;;;;0.20;0.20;;;11.00;81.50;;;;;;5028107;28;20156;-64
2023/11/03 01:45:31;;;;;;;1.55;0.68;;;11.00;81.30;;;;;;5028283;28;20040;-64
2023/11/03 01:47:57;;;;;;;2.20;0.30;;;11.00;81.20;;;;;;5010725;28;20115;-64
2023/11/03 01:50:23;;;;;;;1.48;0.70;;;11.00;81.20;;;;;;5026408;28;20037;-65
2023/11/03 01:52:50;;;;;;;1.05;0.88;;;11.00;81.20;;;;;;5011196;28;20029;-64
2023/11/03 01:55:16;;;;;;;0.32;0.22;;;11.00;81.20;;;;;;5008126;28;20033;-65
2023/11/03 01:57:42;;;;;;;0.30;0.30;;;11.00;81.10;;;;;;5027140;28;20052;-65
2023/11/03 02:00:13;;;;;;;0.38;0.20;;;11.00;81.10;;;;;;5023983;28;20033;-67
2023/11/03 02:02:39;;;;;;;0.95;0.50;;;11.00;80.90;;;;;;5026484;28;20100;-67
2023/11/03 02:05:06;;;;;;;0.52;0.30;;;11.00;80.60;;;;;;5023836;28;20030;-65
2023/11/03 02:07:32;;;;;;;0.60;0.38;;;11.00;80.60;;;;;;5025521;28;20029;-64
2023/11/03 02:09:58;;;;;;;0.30;0.30;;;11.00;80.80;;;;;;5026867;28;20030;-65
2023/11/03 02:12:23;;;;;;;0.30;0.30;;;11.00;80.80;;;;;;5028475;28;20037;-64
2023/11/03 02:14:51;;;;;;;3.95;0.30;;;11.00;81.00;;;;;;5028522;28;20390;-65
2023/11/03 02:17:20;;;;;;;1.95;0.50;;;11.10;80.90;;;;;;5028061;28;20485;-64
2023/11/03 02:19:47;;;;;;;0.52;0.30;;;11.10;80.70;;;;;;4994930;28;20025;-67
2023/11/03 02:22:12;;;;;;;0.28;0.22;;;11.10;80.80;;;;;;5028631;28;20017;-67
2023/11/03 02:24:38;;;;;;;1.85;0.68;;;11.10;80.80;;;;;;5024366;28;20037;-67
2023/11/03 02:27:04;;;;;;;0.25;0.25;;;11.10;81.10;;;;;;5028553;28;20113;-67
2023/11/03 02:29:30;;;;;;;0.80;0.35;;;11.10;80.40;;;;;;5024013;28;20061;-67
2023/11/03 02:31:55;;;;;;;0.80;0.32;;;11.10;80.50;;;;;;5009766;28;20155;-68
2023/11/03 02:34:21;;;;;;;1.27;0.40;;;11.20;80.40;;;;;;5028721;28;20037;-67
2023/11/03 02:36:46;;;;;;;0.90;0.40;;;11.10;80.30;;;;;;5028623;28;20041;-67
2023/11/03 02:39:12;;;;;;;1.75;0.43;;;11.20;80.40;;;;;;5028410;28;20026;-67
2023/11/03 02:41:38;;;;;;;0.73;0.50;;;11.20;80.30;;;;;;5028163;28;20051;-67
2023/11/03 02:44:04;;;;;;;0.60;0.45;;;11.20;80.20;;;;;;5027477;28;20017;-67
2023/11/03 02:46:30;;;;;;;0.77;0.40;;;11.20;79.80;;;;;;5026724;28;20045;-67
2023/11/03 02:48:56;;;;;;;0.40;0.30;;;11.20;79.80;;;;;;5025793;28;20033;-67
2023/11/03 02:51:22;;;;;;;1.45;0.22;;;11.20;79.70;;;;;;5025975;28;20107;-67
2023/11/03 02:53:48;;;;;;;0.52;0.52;;;11.20;79.70;;;;;;5027225;28;20392;-67
2023/11/03 02:56:27;;;;;;;0.40;0.40;;;11.30;79.70;;;;;;5027773;28;20046;-67
2023/11/03 02:58:53;;;;;;;0.15;0.15;;;11.30;79.40;;;;;;5028043;28;20026;-67
2023/11/03 03:01:28;;;;;;;0.38;0.38;;;11.30;79.60;;;;;;5023466;28;20028;-67
2023/11/03 03:03:54;;;;;;;1.85;0.50;;;11.30;79.50;;;;;;5022497;28;20436;-67
2023/11/03 03:06:20;;;;;;;0.52;0.20;;;11.30;79.30;;;;;;5025871;28;20037;-67
2023/11/03 03:08:45;;;;;;;1.30;0.32;;;11.30;79.20;;;;;;5013107;28;20034;-67
2023/11/03 03:11:11;;;;;;;4.07;1.25;;;11.30;79.00;;;;;;5030221;28;20041;-67
2023/11/03 03:13:37;;;;;;;1.40;0.63;;;11.30;79.00;;;;;;5031684;28;20032;-67
2023/11/03 03:16:03;;;;;;;0.55;0.52;;;11.30;78.80;;;;;;5028628;28;20025;-67
2023/11/03 03:18:30;;;;;;;0.77;0.57;;;11.30;78.80;;;;;;5020796;28;20505;-65
2023/11/03 03:20:55;;;;;;;1.27;0.73;;;11.30;78.90;;;;;;5031625;28;20022;-65
2023/11/03 03:23:22;;;;;;;0.30;0.30;;;11.30;78.70;;;;;;5024387;28;20124;-65
2023/11/03 03:25:48;;;;;;;2.75;0.43;;;11.40;79.20;;;;;;5031368;28;20080;-65
2023/11/03 03:28:13;;;;;;;0.30;0.30;;;11.40;79.00;;;;;;5025189;28;20481;-64
2023/11/03 03:30:39;;;;;;;0.82;0.50;;;11.40;79.10;;;;;;5012484;28;20080;-64
2023/11/03 03:33:05;;;;;;;3.13;0.95;;;11.40;78.90;;;;;;5030467;28;20057;-65
2023/11/03 03:35:30;;;;;;;1.38;0.80;;;11.40;78.70;;;;;;5031504;28;20396;-67
2023/11/03 03:37:56;;;;;;;5.88;0.65;;;11.40;78.70;;;;;;5010135;28;20031;-67
2023/11/03 03:40:22;;;;;;;1.35;0.68;;;11.40;78.60;;;;;;5010725;28;20057;-67
2023/11/03 03:42:47;;;;;;;1.52;0.68;;;11.40;78.40;;;;;;5028797;28;20692;-67
2023/11/03 03:45:15;;;;;;;1.55;0.52;;;11.40;78.70;;;;;;5027772;28;20025;-67
2023/11/03 03:47:41;;;;;;;0.38;0.38;;;11.40;78.80;;;;;;5029192;28;20476;-67
2023/11/03 03:50:07;;;;;;;0.90;0.57;;;11.40;78.90;;;;;;5031237;28;20028;-67
2023/11/03 03:52:33;;;;;;;4.28;1.17;;;11.40;78.70;;;;;;5031153;28;20041;-67
2023/11/03 03:54:58;;;;;;;0.40;0.40;;;11.30;78.40;;;;;;5018662;28;20144;-64
2023/11/03 03:57:24;;;;;;;0.70;0.30;;;11.40;78.50;;;;;;5030772;28;20026;-65
2023/11/03 03:59:51;;;;;;;1.00;0.43;;;11.40;78.30;;;;;;5030947;28;20402;-67
2023/11/03 04:02:16;;;;;;;0.20;0.20;;;11.40;78.20;;;;;;5012782;28;20033;-68
2023/11/03 04:04:44;;;;;;;1.00;0.70;;;11.40;78.20;;;;;;5031518;28;20029;-67
2023/11/03 04:07:09;;;;;;;0.80;0.60;;;11.40;78.10;;;;;;5029016;28;20481;-67
2023/11/03 04:09:38;;;;;;;0.88;0.60;;;11.50;77.80;;;;;;5018700;28;20059;-67
2023/11/03 04:12:04;;;;;;;5.20;0.60;;;11.40;77.60;;;;;;5011471;28;20120;-67
2023/11/03 04:14:30;;;;;;;0.63;0.40;;;11.50;78.00;;;;;;5031429;28;20033;-67
2023/11/03 04:16:56;;;;;;;1.02;0.63;;;11.50;77.90;;;;;;5011457;28;20086;-67
2023/11/03 04:19:21;;;;;;;0.40;0.40;;;11.50;78.20;;;;;;5017684;28;20021;-67
2023/11/03 04:21:47;;;;;;;1.15;0.85;;;11.50;78.30;;;;;;5030444;28;20026;-68
2023/11/03 04:24:13;;;;;;;0.20;0.20;;;11.50;78.60;;;;;;5028199;28;20100;-67
2023/11/03 04:26:41;;;;;;;1.77;0.52;;;11.40;78.60;;;;;;5030535;28;20111;-67
2023/11/03 04:29:07;;;;;;;3.83;1.10;;;11.40;79.00;;;;;;5013391;28;20053;-67
2023/11/03 04:31:34;;;;;;;0.65;0.60;;;11.40;79.50;;;;;;5011983;28;20087;-65
2023/11/03 04:34:00;;;;;;;3.92;0.50;;;11.30;79.70;;;;;;5012642;28;20026;-65
2023/11/03 04:36:25;;;;;;;2.78;0.73;;;11.30;80.00;;;;;;4996442;28;20040;-64
2023/11/03 04:38:51;;;;;;;1.10;0.57;;;11.30;80.30;;;;;;5028181;28;20040;-64
2023/11/03 04:41:17;;;;;;;0.50;0.50;;;11.30;80.50;;;;;;5028938;28;20026;-65
2023/11/03 04:43:44;;;;;;;0.40;0.40;;;11.20;81.10;;;;;;5030495;28;20048;-64
2023/11/03 04:46:09;;;;;;;2.15;1.05;;;11.20;81.40;;;;;;5035751;28;20394;-65
2023/11/03 04:48:37;;;;;;;1.10;0.50;;;11.00;81.80;;;;;;5021518;28;20033;-64
2023/11/03 04:51:03;;;;;;;4.50;0.55;;;11.00;82.20;;;;;;5012228;28;20031;-67
2023/11/03 04:53:29;;;;;;;1.48;0.60;;;10.90;82.40;;;;;;5027301;28;20034;-67
2023/11/03 04:55:54;;;;;;;0.88;0.60;;;10.90;82.50;;;;;;5031833;28;20056;-66
2023/11/03 04:58:20;;;;;;;0.77;0.52;;;10.90;82.70;;;;;;5029853;28;20032;-67
2023/11/03 05:00:47;;;;;;;1.38;1.00;;;10.90;82.80;;;;;;5027662;28;20068;-67
2023/11/03 05:03:14;;;;;;;1.65;1.05;;;10.80;83.00;;;;;;5011679;28;20034;-64
2023/11/03 05:05:40;;;;;;;4.40;1.13;;;10.80;83.10;;;;;;5029473;28;20033;-65
2023/11/03 05:08:05;;;;;;;1.88;0.43;;;10.90;83.10;;;;;;5029561;28;20087;-67
2023/11/03 05:10:32;;;;;;;0.43;0.43;;;10.90;83.20;;;;;;5030300;28;20127;-67
2023/11/03 05:12:58;;;;;;;2.03;0.60;;;10.90;83.10;;;;;;5030342;28;20029;-65
2023/11/03 05:15:24;;;;;;;0.63;0.50;;;10.80;83.10;;;;;;5029116;28;20120;-65
2023/11/03 05:17:49;;;;;;;3.35;1.00;;;10.80;83.10;;;;;;5026405;28;20486;-65
2023/11/03 05:20:15;;;;;;;3.25;0.82;;;10.80;83.30;;;;;;5030463;28;20030;-65
2023/11/03 05:22:41;;;;;;;2.38;0.95;;;10.80;83.20;;;;;;5034734;28;20061;-64
2023/11/03 05:25:07;;;;;;;0.65;0.60;;;10.80;83.20;;;;;;5011953;28;20040;-67
2023/11/03 05:27:33;;;;;;;5.00;0.85;;;10.80;83.10;;;;;;5027089;28;20436;-65
2023/11/03 05:29:59;;;;;;;4.68;0.63;;;10.80;83.10;;;;;;5016389;28;20402;-67
2023/11/03 05:32:25;;;;;;;6.45;0.80;;;10.80;83.10;;;;;;4993092;28;20084;-67
2023/11/03 05:34:51;;;;;;;5.88;1.25;;;10.80;82.90;;;;;;5015716;28;20036;-67
2023/11/03 05:37:16;;;;;;;1.80;0.57;;;10.80;82.90;;;;;;5011168;28;20025;-67
2023/11/03 05:39:42;;;;;;;1.05;0.77;;;10.90;82.90;;;;;;5013208;28;20458;-67
2023/11/03 05:42:08;;;;;;;2.83;0.52;;;10.90;82.80;;;;;;5013650;28;20117;-67
2023/11/03 05:44:33;;;;;;;4.72;1.20;;;10.90;82.30;;;;;;5008129;28;20030;-67
2023/11/03 05:47:00;;;;;;;3.25;0.77;;;10.90;82.40;;;;;;5019862;28;20440;-68
2023/11/03 05:49:27;;;;;;;8.45;1.17;;;10.90;82.40;;;;;;5009363;28;20506;-67
2023/11/03 05:51:56;;;;;;;1.98;1.27;;;11.00;82.40;;;;;;5019823;28;20490;-67
2023/11/03 05:54:22;;;;;;;1.60;1.15;;;10.90;82.20;;;;;;4992062;28;20072;-67
2023/11/03 05:56:47;;;;;;;2.08;0.77;;;11.00;82.20;;;;;;5018164;28;20458;-67
2023/11/03 05:59:13;;;;;;;2.67;1.00;;;10.90;82.20;;;;;;5011179;28;20076;-67
2023/11/03 06:01:39;;;;;;;1.30;0.80;;;11.00;82.40;;;;;;5016790;28;20038;-64
2023/11/03 06:04:05;;;;;;;5.68;0.95;;;11.00;82.40;;;;;;5013606;28;20026;-65
2023/11/03 06:06:31;;;;;;;2.50;0.75;;;11.00;82.30;;;;;;5018602;28;20038;-64
2023/11/03 06:08:57;;;;;;;2.67;0.90;;;11.00;82.20;;;;;;5008951;28;20040;-68
2023/11/03 06:11:22;;;;;;;3.80;1.30;;;11.00;82.10;;;;;;5008111;28;20030;-68
2023/11/03 06:13:48;;;;;;;4.90;0.80;;;11.00;82.10;;;;;;5009489;28;20038;-67
2023/11/03 06:16:18;;;;;;;2.10;0.82;;;11.00;82.10;;;;;;4996109;28;20033;-67
2023/11/03 06:18:45;;;;;;;0.77;0.77;;;11.00;81.90;;;;;;5009597;28;20102;-68
2023/11/03 06:21:11;;;;;;;5.05;1.02;;;11.00;81.80;;;;;;5005620;28;20056;-68
2023/11/03 06:23:37;;;;;;;1.48;0.73;;;11.10;81.40;;;;;;5010058;28;20026;-68
2023/11/03 06:26:04;;;;;;;1.10;0.90;;;11.10;81.30;;;;;;5011949;28;20075;-68
2023/11/03 06:28:30;;;;;;;2.67;1.33;;;11.10;81.30;;;;;;4987115;28;20030;-68
2023/11/03 06:30:55;;;;;;;2.83;1.45;;;11.10;81.30;;;;;;4989616;28;20496;-68
2023/11/03 06:33:22;;;;;;;1.48;0.80;;;11.10;81.30;;;;;;5011368;28;20061;-67
2023/11/03 06:35:47;;;;;;;1.63;1.13;;;11.20;81.60;;;;;;5023174;28;20421;-67
2023/11/03 06:38:13;;;;;;;3.45;1.42;;;11.20;81.80;;;;;;5024761;28;20026;-68
2023/11/03 06:40:39;;;;;;;0.88;0.65;;;11.20;82.00;;;;;;5027683;28;20478;-68
2023/11/03 06:43:05;;;;;;;2.72;1.20;;;11.10;82.10;;;;;;5031485;28;20032;-68
2023/11/03 06:45:32;;;;;;;2.20;1.10;;;11.10;82.20;;;;;;5034322;28;20474;-68
2023/11/03 06:47:57;;;;;;;3.72;0.70;;;11.10;82.30;;;;;;5016235;28;20379;-64
2023/11/03 06:50:23;;;;;;;1.08;0.63;;;11.10;82.50;;;;;;5031136;28;20032;-64
2023/11/03 06:52:50;;;;;;;3.83;1.35;;;11.10;82.50;;;;;;5017932;28;20029;-64
2023/11/03 06:55:19;;;;;;;2.28;1.20;;;11.10;82.60;;;;;;5013040;28;20040;-64
2023/11/03 06:57:47;;;;;;;1.17;0.85;;;11.10;82.70;;;;;;5032324;28;20083;-64
2023/11/03 07:00:13;;;;;;;5.15;1.05;;;11.10;82.80;;;;;;5010581;28;20034;-64
2023/11/03 07:02:40;;;;;;;1.27;0.68;;;11.10;82.90;;;;;;5014672;28;20477;-64
2023/11/03 07:05:06;;;;;;;1.33;1.00;;;11.10;82.80;;;;;;5035879;28;20040;-64
2023/11/03 07:07:32;;;;;;;1.42;1.08;;;11.10;82.80;;;;;;5035740;28;20100;-64
2023/11/03 07:09:59;;;;;;;1.98;1.02;;;11.10;83.00;;;;;;5029624;28;20022;-64
2023/11/03 07:12:26;;;;;;;1.25;0.52;;;11.10;83.00;;;;;;5019366;28;20455;-69
2023/11/03 07:14:52;;;;;;;4.75;1.10;;;11.10;83.10;;;;;;5026355;28;20032;-64
2023/11/03 07:17:17;;;;;;;1.65;0.95;;;11.10;83.20;;;;;;5024859;28;20026;-67
2023/11/03 07:19:43;;;;;;;1.38;0.82;;;11.10;83.30;;;;;;5031222;28;20366;-68
2023/11/03 07:22:09;;;;;;;3.35;1.13;;;11.10;83.30;;;;;;5014051;28;20485;-68
2023/11/03 07:24:35;;;;;;;1.00;0.90;;;11.10;83.40;;;;;;5032211;28;20022;-68
2023/11/03 07:27:02;;;;;;;2.28;1.08;;;11.10;83.50;;;;;;5018213;28;20029;-64
2023/11/03 07:29:27;;;;;;;4.03;1.02;;;11.10;83.50;;;;;;5036197;28;20124;-64
2023/11/03 07:31:53;;;;;;;2.33;1.13;;;11.10;83.50;;;;;;5032092;28;20113;-64
2023/11/03 07:34:19;;;;;;;1.73;0.63;;;11.10;83.50;;;;;;5031485;28;20036;-64
2023/11/03 07:36:45;;;;;;;1.85;0.88;;;11.10;83.60;;;;;;5030286;28;20524;-64
2023/11/03 07:39:11;;;;;;;4.20;0.95;;;11.10;83.60;;;;;;5033743;28;20034;-68
2023/11/03 07:41:37;;;;;;;5.95;1.63;;;11.10;83.70;;;;;;5028609;28;20044;-68
2023/11/03 07:44:05;;;;;;;3.58;0.65;;;11.10;83.60;;;;;;5026828;28;20017;-65
2023/11/03 07:46:32;;;;;;;6.38;0.70;;;11.10;83.60;;;;;;5028421;28;20033;-65
2023/11/03 07:49:01;;;;;;;3.45;0.70;;;11.10;83.50;;;;;;5026453;28;20111;-63
2023/11/03 07:51:29;;;;;;;1.23;0.90;;;11.10;83.50;;;;;;5027812;28;20029;-63
2023/11/03 07:53:55;;;;;;;1.63;0.80;;;11.10;83.40;;;;;;5030062;28;20029;-67
2023/11/03 07:56:21;;;;;;;1.55;1.05;;;11.10;83.30;;;;;;5027533;28;20042;-67
2023/11/03 07:58:47;;;;;;;4.28;0.80;;;11.10;83.40;;;;;;5027968;28;20067;-67
2023/11/03 08:01:13;;;;;;;1.77;0.60;;;11.20;83.30;;;;;;5018676;28;20513;-63
2023/11/03 08:03:38;;;;;;;0.45;0.45;;;11.20;83.30;;;;;;5031450;28;20039;-67
2023/11/03 08:06:06;;;;;;;1.23;0.70;;;11.20;83.30;;;;;;5030107;28;20030;-67
2023/11/03 08:08:32;;;;;;;3.13;1.25;;;11.20;83.10;;;;;;5030347;28;20045;-67
2023/11/03 08:10:57;;;;;;;2.28;1.27;;;11.20;82.90;;;;;;5022956;28;20533;-67
2023/11/03 08:13:24;;;;;;;11.40;2.08;;;11.30;82.90;;;;;;5028583;28;20033;-67
2023/11/03 08:15:50;;;;;;;4.63;0.80;;;11.30;82.90;;;;;;5025937;28;20440;-66
2023/11/03 08:18:16;;;;;;;0.80;0.65;;;11.40;82.70;;;;;;5029085;28;20033;-66
2023/11/03 08:20:42;;;;;;;4.28;0.65;;;11.40;82.50;;;;;;5015375;28;20034;-66
2023/11/03 08:23:09;;;;;;;2.05;0.82;;;11.50;82.30;;;;;;5025904;28;20026;-68
2023/11/03 08:25:35;;;;;;;3.42;1.70;;;11.50;82.10;;;;;;5012774;28;20048;-62
2023/11/03 08:28:01;;;;;;;1.27;0.85;;;11.60;82.10;;;;;;5030029;28;20047;-63
2023/11/03 08:30:27;;;;;;;2.05;1.23;;;11.70;82.10;;;;;;5030301;28;20057;-67
2023/11/03 08:32:53;;;;;;;5.35;0.80;;;11.70;81.80;;;;;;5027934;28;20030;-62
2023/11/03 08:35:22;;;;;;;2.05;1.10;;;11.80;81.70;;;;;;5030348;28;20060;-63
2023/11/03 08:37:52;;;;;;;1.67;0.70;;;11.90;80.90;;;;;;5024183;28;20028;-63
2023/11/03 08:40:20;;;;;;;3.55;1.35;;;11.90;81.00;;;;;;5034148;28;20036;-64
2023/11/03 08:42:46;;;;;;;1.13;0.47;;;12.00;80.40;;;;;;5026199;28;20034;-64
2023/11/03 08:45:13;;;;;;;4.65;1.33;;;12.00;80.60;;;;;;5034790;28;20029;-63
2023/11/03 08:47:42;;;;;;;2.05;1.17;;;12.20;80.50;;;;;;5027956;28;20033;-68
2023/11/03 08:50:12;;;;;;;1.17;0.80;;;12.40;80.20;;;;;;5030027;28;20369;-68
2023/11/03 08:52:38;;;;;;;2.42;0.47;;;12.50;79.60;;;;;;5026977;28;20033;-64
2023/11/03 08:55:08;;;;;;;2.88;1.08;;;12.70;79.30;;;;;;5027647;28;20393;-64
2023/11/03 08:57:38;;;;;;;7.60;1.42;;;12.90;78.70;;;;;;5024294;28;20133;-66
2023/11/03 09:00:11;;;;;;;1.90;1.10;;;13.00;78.30;;;;;;5027515;28;20091;-68
2023/11/03 09:02:38;;;;;;;3.22;0.93;;;13.10;78.10;;;;;;5025738;28;20033;-65
2023/11/03 09:05:07;;;;;;;3.40;1.35;;;13.20;77.80;;;;;;5007742;28;20028;-65
2023/11/03 09:07:35;;;;;;;1.85;1.10;;;13.30;76.40;;;;;;5026734;28;20033;-66
2023/11/03 09:10:06;;;;;;;1.98;1.00;;;13.20;76.10;;;;;;5010128;28;20104;-67
2023/11/03 09:12:33;;;;;;;1.65;0.85;;;13.20;75.50;;;;;;5007127;28;20033;-68
2023/11/03 09:14:59;;;;;;;1.63;0.75;;;13.20;75.70;;;;;;5016117;28;20034;-67
2023/11/03 09:17:25;;;;;;;1.70;0.85;;;13.10;75.20;;;;;;5020466;28;20047;-68
2023/11/03 09:19:50;;;;;;;6.00;1.27;;;13.10;75.60;;;;;;5007567;28;20052;-69
2023/11/03 09:22:16;;;;;;;7.25;1.42;;;13.20;75.90;;;;;;5005482;28;20033;-69
2023/11/03 09:24:42;;;;;;;3.13;1.10;;;13.20;75.60;;;;;;5020306;28;20188;-65
2023/11/03 09:27:08;;;;;;;2.00;1.50;;;13.20;74.90;;;;;;5020309;28;20504;-68
2023/11/03 09:29:34;;;;;;;6.25;1.55;;;13.20;75.30;;;;;;5028838;28;20057;-68
2023/11/03 09:32:00;;;;;;;2.33;1.58;;;13.20;75.10;;;;;;5010627;28;20033;-68
2023/11/03 09:34:27;;;;;;;2.78;1.05;;;13.10;75.30;;;;;;5026486;28;20041;-69
2023/11/03 09:36:53;;;;;;;2.08;1.08;;;13.10;75.20;;;;;;5023124;28;20029;-66
2023/11/03 09:39:18;;;;;;;1.85;0.98;;;13.10;75.60;;;;;;5020184;28;20523;-66
2023/11/03 09:41:54;;;;;;;2.25;0.93;;;13.20;75.40;;;;;;5022939;28;20030;-69
2023/11/03 09:44:20;;;;;;;5.05;1.15;;;13.30;75.40;;;;;;5019075;28;20586;-68
2023/11/03 09:46:50;;;;;;;7.30;1.60;;;13.30;75.00;;;;;;5025645;28;20030;-68
2023/11/03 09:49:18;;;;;;;4.85;0.65;;;13.30;75.00;;;;;;5025058;28;20041;-66
2023/11/03 09:51:48;;;;;;;1.15;0.82;;;13.30;75.00;;;;;;4998978;28;20119;-68
2023/11/03 09:54:14;;;;;;;1.48;0.90;;;13.30;75.00;;;;;;5017467;28;20029;-69
2023/11/03 09:56:45;;;;;;;1.33;1.00;;;13.30;75.20;;;;;;5004472;28;20037;-69
2023/11/03 09:59:14;;;;;;;2.65;1.05;;;13.30;74.90;;;;;;5025692;28;20029;-69
2023/11/03 10:01:41;;;;;;;2.40;0.60;;;13.20;75.10;;;;;;5025718;28;20029;-65
2023/11/03 10:04:08;;;;;;;2.08;0.70;;;13.30;75.30;;;;;;5011500;28;20072;-65
2023/11/03 10:06:36;;;;;;;5.80;1.30;;;13.30;74.80;;;;;;5028167;28;20037;-65
2023/11/03 10:09:01;;;;;;;4.80;1.60;;;13.20;74.50;;;;;;5007331;28;20294;-65
2023/11/03 10:11:28;;;;;;;2.63;1.65;;;13.20;74.30;;;;;;5027503;28;20053;-66
2023/11/03 10:13:54;;;;;;;5.30;1.55;;;13.10;74.50;;;;;;5016872;28;20045;-65
2023/11/03 10:16:20;;;;;;;2.75;0.82;;;13.20;74.80;;;;;;5026579;28;20037;-66
2023/11/03 10:18:46;;;;;;;1.23;0.85;;;13.10;74.90;;;;;;5008000;28;20053;-66
2023/11/03 10:21:13;;;;;;;5.00;1.52;;;13.10;74.80;;;;;;5019780;28;20038;-66
2023/11/03 10:23:38;;;;;;;1.17;0.88;;;13.20;74.70;;;;;;5017882;28;20385;-66
2023/11/03 10:26:05;;;;;;;2.17;0.90;;;13.20;74.50;;;;;;5025904;28;20060;-66
2023/11/03 10:28:32;;;;;;;5.78;1.25;;;13.30;74.20;;;;;;5026452;28;20046;-66
2023/11/03 10:31:00;;;;;;;1.30;0.65;;;13.20;74.60;;;;;;5024905;28;20481;-66
2023/11/03 10:33:26;;;;;;;0.75;0.65;;;13.40;74.60;;;;;;5021087;28;20037;-65
2023/11/03 10:35:52;;;;;;;6.22;1.48;;;13.60;74.50;;;;;;5020666;28;20042;-65
2023/11/03 10:38:20;;;;;;;0.70;0.60;;;14.00;73.60;;;;;;5024960;28;20029;-66
2023/11/03 10:40:49;;;;;;;3.05;1.25;;;14.30;72.80;;;;;;5021532;28;20477;-65
2023/11/03 10:43:24;;;;;;;3.47;1.42;;;14.50;72.30;;;;;;5020333;28;20038;-65
2023/11/03 10:46:11;;;;;;;3.53;1.50;;;14.60;71.90;;;;;;5020147;28;20037;-69
2023/11/03 10:48:43;;;;;;;2.58;1.10;;;14.50;71.90;;;;;;5005866;28;20887;-68
2023/11/03 10:51:17;;;;;;;4.10;1.33;;;14.40;70.90;;;;;;5026308;28;20466;-68
2023/11/03 10:53:48;;;;;;;2.72;1.27;;;14.20;71.30;;;;;;5006730;28;20088;-65
2023/11/03 10:56:15;;;;;;;2.53;0.90;;;14.00;72.00;;;;;;5019907;28;20040;-69
2023/11/03 10:58:42;;;;;;;4.45;1.27;;;13.90;72.40;;;;;;5025087;28;20571;-68
2023/11/03 11:01:21;;;;;;;3.47;1.27;;;13.80;72.70;;;;;;5022909;28;20036;-65
2023/11/03 11:03:56;;;;;;;3.13;0.88;;;13.70;72.70;;;;;;5026371;28;20474;-69
2023/11/03 11:06:29;;;;;;;3.42;1.27;;;13.60;72.80;;;;;;5022203;28;20156;-69
2023/11/03 11:09:02;;;;;;;2.33;1.08;;;13.60;72.90;;;;;;5025692;28;20029;-66
2023/11/03 11:11:27;;;;;;;2.60;1.23;;;13.60;73.40;;;;;;5028379;28;20104;-69
2023/11/03 11:13:53;;;;;;;2.03;1.20;;;13.60;73.00;;;;;;5026220;28;20172;-70
2023/11/03 11:16:19;;;;;;;1.75;1.27;;;13.60;73.10;;;;;;5027236;28;20040;-66
2023/11/03 11:18:51;;;;;;;5.78;0.90;;;13.70;72.80;;;;;;5027552;28;20049;-68
2023/11/03 11:21:26;;;;;;;;;;;13.60;72.60;;;;;;5028052;28;20140;-67
2023/11/03 11:23:51;;;;;;;2.42;0.75;;;13.60;72.40;;;;;;5021553;28;20006;-66
2023/11/03 11:26:20;;;;;;;4.18;1.02;;;13.50;73.10;;;;;;5023647;28;20076;-66
2023/11/03 11:28:46;;;;;;;2.70;1.13;;;13.60;72.80;;;;;;5026538;28;20061;-72
2023/11/03 11:31:40;;;;;;;3.03;1.52;;;13.60;72.80;;;;;;5032449;28;20448;-66
2023/11/03 11:34:07;;;;;;;6.32;1.05;;;13.50;72.30;;;;;;5023753;28;20119;-71
2023/11/03 11:36:34;;;;;;;1.70;0.77;;;13.50;72.80;;;;;;5029001;28;20625;-71
2023/11/03 11:39:06;;;;;;;1.20;0.98;;;13.50;72.50;;;;;;5030544;28;20025;-64
2023/11/03 11:41:35;;;;;;;3.70;1.17;;;13.40;72.40;;;;;;5013105;28;20132;-63
2023/11/03 11:44:02;;;;;;;4.88;1.35;;;13.40;72.10;;;;;;5030532;28;20017;-66
2023/11/03 11:46:32;;;;;;;9.30;2.17;;;13.40;72.40;;;;;;5026965;28;20116;-66
2023/11/03 11:49:02;;;;;;;1.20;0.80;;;13.30;71.70;;;;;;5025882;28;20476;-69
2023/11/03 11:51:28;;;;;;;7.25;1.25;;;13.30;72.10;;;;;;5030108;28;20486;-69
2023/11/03 11:54:00;;;;;;;2.88;1.20;;;13.40;72.60;;;;;;5030547;28;20029;-68
2023/11/03 11:56:26;;;;;;;4.45;1.52;;;13.40;72.40;;;;;;5006296;28;20033;-66
2023/11/03 11:58:54;;;;;;;2.33;0.68;;;13.40;72.60;;;;;;5013237;28;20382;-65
2023/11/03 12:01:24;;;;;;;1.13;0.80;;;13.50;72.60;;;;;;5028420;28;20442;-65
2023/11/03 12:03:52;;;;;;;5.85;1.23;;;13.50;72.30;;;;;;5024468;28;20022;-67
2023/11/03 12:06:19;;;;;;;2.15;1.10;;;13.60;72.50;;;;;;5030228;28;20025;-73
2023/11/03 12:08:45;;;;;;;4.07;0.90;;;13.50;72.10;;;;;;5021553;28;20112;-72
2023/11/03 12:11:11;;;;;;;4.25;1.77;;;13.50;71.30;;;;;;5009658;28;20061;-68
2023/11/03 12:13:37;;;;;;;1.92;1.00;;;13.60;71.60;;;;;;5023610;28;20030;-67
2023/11/03 12:16:03;;;;;;;1.45;0.65;;;13.80;71.10;;;;;;5000420;28;20080;-69
2023/11/03 12:18:30;;;;;;;1.98;0.93;;;14.00;70.00;;;;;;5011833;28;21437;-64
2023/11/03 12:20:59;;;;;;;1.88;1.20;;;14.30;70.60;;;;;;5020678;28;20054;-65
2023/11/03 12:23:25;;;;;;;4.45;1.33;;;15.90;67.20;;;;;;5025077;28;20041;-65
2023/11/03 12:25:52;;;;;;;1.35;0.93;;;17.30;63.30;;;;;;5030684;28;20034;-66
2023/11/03 12:28:22;;;;;;;2.90;1.15;;;18.30;60.90;;;;;;5029380;28;20037;-69
2023/11/03 12:30:49;;;;;;;3.13;0.70;;;19.10;58.10;;;;;;5027802;28;20037;-65
2023/11/03 12:33:15;;;;;;;3.60;1.02;;;18.90;56.60;;;;;;5030301;28;20021;-65
2023/11/03 12:35:43;;;;;;;2.13;1.13;;;18.20;58.10;;;;;;5022512;28;20092;-64
2023/11/03 12:38:09;;;;;;;1.55;0.90;;;18.70;57.50;;;;;;5028017;28;20057;-64
2023/11/03 12:40:35;;;;;;;3.75;0.68;;;18.70;57.10;;;;;;5029283;28;20026;-64
2023/11/03 12:43:12;;;;;;;0.98;0.70;;;18.20;57.60;;;;;;5026960;28;20045;-65
2023/11/03 12:45:39;;;;;;;3.78;1.48;;;17.70;58.20;;;;;;5022570;28;20080;-70